Terminal Aerodrome Forecast
Issued by NWS

Home | Current Version | Previous Version | Text Only | Print | Product List | Glossary On
Versions: 1 2 3 4 5 6 7 8 9 10 11 12 13 14 15 16 17 18 19 20 21
294
FTUS43 KDVN 300520
TAFCID
TAF
KCID 300520Z 3006/0106 23007KT P6SM BKN030
     FM301000 25007KT P6SM OVC012
     FM301500 26012KT 6SM BR BKN008 OVC012
     FM301900 26015G22KT 5SM -RASN BR OVC015
     FM010100 27014KT 5SM BR VCSH OVC010=

USA.gov is the U.S. government's official web portal to all federal, state and local government web resources and services.